Time;durP1;ratioP1;P1;durP2;ratioP2;P2;SDS_P1;SDS_P2;PMS_P1;PMS_P2;Temp;Humidity;BMP_temperature;BMP_pressure;BME280_temperature;BME280_humidity;BME280_pressure;Samples;Min_cycle;Max_cycle;Signal;HPM_P1;HPM_P2
2024/01/15 00:01:01;;;;;;;22.77;19.77;;;-1.30;99.90;;;;;;5032450;28;20470;-78
2024/01/15 00:03:28;;;;;;;23.77;20.87;;;-1.20;99.90;;;;;;5023201;28;20475;-78
2024/01/15 00:05:55;;;;;;;22.23;19.57;;;-1.20;99.90;;;;;;5031467;28;20861;-78
2024/01/15 00:08:21;;;;;;;22.07;19.70;;;-1.10;99.90;;;;;;5027700;28;20880;-78
2024/01/15 00:10:48;;;;;;;21.97;19.63;;;-1.10;99.90;;;;;;5028163;28;20462;-78
2024/01/15 00:13:15;;;;;;;23.67;20.37;;;-1.10;99.90;;;;;;5027141;28;20456;-78
2024/01/15 00:15:42;;;;;;;24.57;20.77;;;-1.00;99.90;;;;;;5025009;28;20508;-77
2024/01/15 00:18:10;;;;;;;22.10;19.70;;;-1.00;99.90;;;;;;5060564;28;20504;-78
2024/01/15 00:20:37;;;;;;;24.60;19.97;;;-1.00;99.90;;;;;;5030725;28;20846;-77
2024/01/15 00:23:04;;;;;;;26.97;20.03;;;-1.00;99.90;;;;;;5030540;28;21172;-78
2024/01/15 00:25:31;;;;;;;22.50;20.27;;;-0.90;99.90;;;;;;5030694;28;20456;-77
2024/01/15 00:27:57;;;;;;;23.90;20.50;;;-0.90;99.90;;;;;;5037503;28;20439;-78
2024/01/15 00:30:24;;;;;;;20.97;18.87;;;-0.90;99.90;;;;;;5033631;28;21028;-78
2024/01/15 00:32:51;;;;;;;23.27;19.80;;;-0.80;99.90;;;;;;5030628;28;21020;-78
2024/01/15 00:35:19;;;;;;;22.43;19.30;;;-0.80;99.90;;;;;;5014311;28;20441;-78
2024/01/15 00:37:46;;;;;;;25.67;20.47;;;-0.80;99.90;;;;;;5044658;28;20512;-78
2024/01/15 00:40:12;;;;;;;22.70;19.77;;;-0.80;99.90;;;;;;5030729;28;21017;-78
2024/01/15 00:42:39;;;;;;;21.80;19.53;;;-0.70;99.90;;;;;;5031529;28;20479;-77
2024/01/15 00:45:07;;;;;;;24.80;20.20;;;-0.70;99.90;;;;;;5031864;28;20444;-78
2024/01/15 00:47:34;;;;;;;25.43;20.70;;;-0.70;99.90;;;;;;5038588;28;20474;-78
2024/01/15 00:50:01;;;;;;;23.90;20.93;;;-0.70;99.90;;;;;;5040173;28;20435;-78
2024/01/15 00:52:29;;;;;;;25.30;20.53;;;-0.70;99.90;;;;;;5045406;28;20453;-78
2024/01/15 00:54:56;;;;;;;23.17;20.10;;;-0.70;99.90;;;;;;5035664;28;20799;-78
2024/01/15 00:57:23;;;;;;;25.03;20.07;;;-0.70;99.90;;;;;;5030123;28;21027;-78
2024/01/15 00:59:49;;;;;;;21.93;19.70;;;-0.70;99.90;;;;;;5033186;28;20437;-78
2024/01/15 01:02:17;;;;;;;24.83;20.70;;;-0.60;99.90;;;;;;5020774;28;20515;-78
2024/01/15 01:04:43;;;;;;;23.50;20.87;;;-0.60;99.90;;;;;;5031092;28;20531;-78
2024/01/15 01:07:10;;;;;;;24.93;21.07;;;-0.60;99.90;;;;;;5030184;28;20464;-77
2024/01/15 01:09:38;;;;;;;23.90;20.13;;;-0.60;99.90;;;;;;5030490;28;20888;-78
2024/01/15 01:12:06;;;;;;;23.67;20.03;;;-0.60;99.90;;;;;;5028416;28;20440;-78
2024/01/15 01:14:33;;;;;;;25.00;20.23;;;-0.60;99.90;;;;;;5038253;28;20442;-78
2024/01/15 01:16:59;;;;;;;21.77;19.47;;;-0.60;99.90;;;;;;5021707;28;20528;-77
2024/01/15 01:19:26;;;;;;;26.47;21.73;;;-0.50;99.90;;;;;;5020746;28;20454;-78
2024/01/15 01:21:53;;;;;;;25.47;20.23;;;-0.50;99.90;;;;;;5029878;28;20479;-78
2024/01/15 01:24:20;;;;;;;21.80;19.63;;;-0.50;99.90;;;;;;5029973;28;20989;-78
2024/01/15 01:26:48;;;;;;;24.57;19.87;;;-0.50;99.90;;;;;;5028543;28;20456;-77
2024/01/15 01:29:15;;;;;;;27.70;22.07;;;-0.50;99.90;;;;;;5031461;28;20527;-78
2024/01/15 01:31:45;;;;;;;24.67;21.93;;;-0.50;99.90;;;;;;5026955;28;20448;-78
2024/01/15 01:34:14;;;;;;;22.80;20.23;;;-0.40;99.90;;;;;;5031333;28;20440;-78
2024/01/15 01:36:41;;;;;;;25.07;19.43;;;-0.40;99.90;;;;;;5028935;28;20457;-78
2024/01/15 01:39:08;;;;;;;24.63;20.00;;;-0.40;99.90;;;;;;5031231;28;20942;-78
2024/01/15 01:41:35;;;;;;;27.67;20.57;;;-0.40;99.90;;;;;;5031377;28;20476;-78
2024/01/15 01:44:04;;;;;;;22.30;18.83;;;-0.40;99.90;;;;;;5036475;28;20465;-78
2024/01/15 01:46:31;;;;;;;24.80;20.80;;;-0.40;99.90;;;;;;5033296;28;20495;-78
2024/01/15 01:49:03;;;;;;;22.50;20.20;;;-0.40;99.90;;;;;;5031582;28;20493;-78
2024/01/15 01:51:30;;;;;;;24.50;19.73;;;-0.40;99.90;;;;;;5029270;28;20509;-77
2024/01/15 01:53:57;;;;;;;20.77;18.57;;;-0.40;99.90;;;;;;5033695;28;20433;-78
2024/01/15 01:56:24;;;;;;;24.20;20.73;;;-0.40;99.90;;;;;;5035240;28;20897;-77
2024/01/15 01:58:51;;;;;;;21.83;19.53;;;-0.40;99.90;;;;;;5029505;28;20512;-78
2024/01/15 02:01:20;;;;;;;20.73;18.43;;;-0.40;99.90;;;;;;5029707;28;20477;-77
2024/01/15 02:03:47;;;;;;;24.50;20.23;;;-0.30;99.90;;;;;;5030609;28;20463;-78
2024/01/15 02:06:14;;;;;;;26.27;19.87;;;-0.40;99.90;;;;;;5031015;28;20464;-78
2024/01/15 02:08:44;;;;;;;22.30;18.23;;;-0.40;99.90;;;;;;5029829;28;20469;-77
2024/01/15 02:11:11;;;;;;;23.03;19.37;;;-0.30;99.90;;;;;;5017822;28;20435;-78
2024/01/15 02:13:39;;;;;;;23.40;19.20;;;-0.40;99.90;;;;;;5029528;28;20449;-78
2024/01/15 02:16:06;;;;;;;27.20;19.90;;;-0.40;99.90;;;;;;5022569;28;20508;-78
2024/01/15 02:18:42;;;;;;;21.53;18.93;;;-0.40;99.90;;;;;;5033661;28;20439;-78
2024/01/15 02:21:09;;;;;;;24.10;19.83;;;-0.40;99.90;;;;;;5031023;28;20513;-78
2024/01/15 02:23:37;;;;;;;24.23;19.60;;;-0.40;99.90;;;;;;5034194;28;20432;-78
2024/01/15 02:26:06;;;;;;;23.03;19.47;;;-0.40;99.90;;;;;;5033028;28;20530;-78
2024/01/15 02:28:34;;;;;;;23.83;18.73;;;-0.40;99.90;;;;;;5026068;28;20463;-79
2024/01/15 02:31:01;;;;;;;24.10;19.83;;;-0.40;99.90;;;;;;5024455;28;20449;-78
2024/01/15 02:33:27;;;;;;;22.50;19.80;;;-0.40;99.90;;;;;;5034004;28;20458;-78
2024/01/15 02:35:54;;;;;;;24.77;19.13;;;-0.40;99.90;;;;;;5031393;28;21099;-78
2024/01/15 02:38:21;;;;;;;22.30;18.60;;;-0.40;99.90;;;;;;5034303;28;20439;-77
2024/01/15 02:40:50;;;;;;;22.60;19.47;;;-0.40;99.90;;;;;;5030002;28;20447;-78
2024/01/15 02:43:18;;;;;;;21.33;18.67;;;-0.40;99.90;;;;;;5033185;28;20894;-77
2024/01/15 02:45:45;;;;;;;22.03;19.13;;;-0.40;99.90;;;;;;5025330;28;20437;-77
2024/01/15 02:48:12;;;;;;;21.60;18.80;;;-0.40;99.90;;;;;;5033768;28;20438;-78
2024/01/15 02:50:39;;;;;;;21.17;18.87;;;-0.40;99.90;;;;;;5032943;28;20475;-78
2024/01/15 02:53:06;;;;;;;20.43;17.70;;;-0.40;99.90;;;;;;5027824;28;20440;-78
2024/01/15 02:55:33;;;;;;;24.00;19.53;;;-0.40;99.90;;;;;;5032317;28;20487;-77
2024/01/15 02:58:01;;;;;;;23.03;19.50;;;-0.40;99.90;;;;;;5029812;28;20953;-78
2024/01/15 03:00:28;;;;;;;22.53;18.77;;;-0.40;99.90;;;;;;5031577;28;20510;-78
2024/01/15 03:02:56;;;;;;;20.80;18.07;;;-0.40;99.90;;;;;;5014175;28;20908;-78
2024/01/15 03:05:23;;;;;;;20.93;17.57;;;-0.40;99.90;;;;;;5031555;28;20770;-78
2024/01/15 03:07:49;;;;;;;20.77;17.60;;;-0.40;99.90;;;;;;5023778;28;20464;-78
2024/01/15 03:10:16;;;;;;;19.03;17.03;;;-0.40;99.90;;;;;;5032201;28;20519;-78
2024/01/15 03:12:43;;;;;;;22.83;18.80;;;-0.40;99.90;;;;;;5026484;28;20879;-78
2024/01/15 03:15:11;;;;;;;20.30;18.17;;;-0.40;99.90;;;;;;5024972;28;20440;-78
2024/01/15 03:17:38;;;;;;;20.70;18.03;;;-0.40;99.90;;;;;;5024412;28;20484;-78
2024/01/15 03:20:06;;;;;;;20.57;17.83;;;-0.50;99.90;;;;;;5032193;28;21041;-78
2024/01/15 03:22:33;;;;;;;20.23;17.77;;;-0.40;99.90;;;;;;5040122;28;20484;-78
2024/01/15 03:24:59;;;;;;;19.93;17.73;;;-0.50;99.90;;;;;;5032483;28;20468;-78
2024/01/15 03:27:26;;;;;;;20.83;17.87;;;-0.50;99.90;;;;;;5029116;28;20454;-78
2024/01/15 03:29:53;;;;;;;19.83;16.87;;;-0.50;99.90;;;;;;5031700;28;20435;-78
2024/01/15 03:32:21;;;;;;;18.77;16.50;;;-0.50;99.90;;;;;;5025336;28;21026;-78
2024/01/15 03:34:48;;;;;;;19.20;17.17;;;-0.50;99.90;;;;;;5031198;28;20433;-77
2024/01/15 03:37:15;;;;;;;22.00;18.43;;;-0.50;99.90;;;;;;5031308;28;20475;-77
2024/01/15 03:39:41;;;;;;;17.90;16.20;;;-0.50;99.90;;;;;;5032264;28;20436;-78
2024/01/15 03:42:08;;;;;;;20.53;18.43;;;-0.50;99.90;;;;;;5020610;28;20478;-77
2024/01/15 03:44:35;;;;;;;19.03;17.00;;;-0.50;99.90;;;;;;5027938;28;20483;-77
2024/01/15 03:47:02;;;;;;;21.20;17.87;;;-0.50;99.90;;;;;;5018418;28;20473;-77
2024/01/15 03:49:30;;;;;;;20.67;18.47;;;-0.50;99.90;;;;;;5024378;28;20447;-76
2024/01/15 03:51:57;;;;;;;22.30;17.63;;;-0.50;99.90;;;;;;5026267;28;20437;-79
2024/01/15 03:54:23;;;;;;;22.10;18.10;;;-0.50;99.90;;;;;;5027365;28;20452;-81
2024/01/15 03:56:50;;;;;;;21.00;18.13;;;-0.50;99.90;;;;;;5031482;28;20463;-82
2024/01/15 03:59:17;;;;;;;21.67;18.63;;;-0.40;99.90;;;;;;5030740;28;20521;-82
2024/01/15 04:01:50;;;;;;;24.30;18.03;;;-0.40;99.90;;;;;;5025054;28;20546;-80
2024/01/15 04:04:18;;;;;;;27.10;18.80;;;-0.30;99.90;;;;;;5034035;28;20468;-81
2024/01/15 04:06:46;;;;;;;20.43;17.30;;;-0.30;99.90;;;;;;5024459;28;21006;-81
2024/01/15 04:09:14;;;;;;;21.43;19.03;;;-0.20;99.90;;;;;;5032854;28;20488;-81
2024/01/15 04:11:40;;;;;;;21.57;17.70;;;-0.20;99.90;;;;;;5033680;28;20798;-81
2024/01/15 04:14:07;;;;;;;21.53;17.70;;;-0.20;99.90;;;;;;5032266;28;20451;-81
2024/01/15 04:16:34;;;;;;;20.13;17.97;;;-0.20;99.90;;;;;;5031938;28;20473;-80
2024/01/15 04:19:01;;;;;;;23.87;18.90;;;-0.20;99.90;;;;;;5024053;28;20453;-80
2024/01/15 04:21:28;;;;;;;24.73;18.13;;;-0.10;99.90;;;;;;5028461;28;21048;-81
2024/01/15 04:23:56;;;;;;;21.40;18.83;;;-0.10;99.90;;;;;;5027808;28;20842;-81
2024/01/15 04:26:22;;;;;;;19.90;17.80;;;-0.10;99.90;;;;;;5025042;28;20514;-81
2024/01/15 04:28:51;;;;;;;21.97;18.40;;;-0.10;99.90;;;;;;5032269;28;20471;-80
2024/01/15 04:31:23;;;;;;;24.60;19.40;;;-0.10;99.90;;;;;;5025913;28;20468;-79
2024/01/15 04:33:49;;;;;;;21.90;18.57;;;-0.10;99.90;;;;;;5021011;28;20963;-81
2024/01/15 04:36:16;;;;;;;23.83;18.47;;;-0.10;99.90;;;;;;5036141;28;21002;-79
2024/01/15 04:38:43;;;;;;;20.57;18.57;;;0.00;99.90;;;;;;5030243;28;20460;-79
2024/01/15 04:41:13;;;;;;;21.63;18.73;;;0.00;99.90;;;;;;5031298;28;20496;-79
2024/01/15 04:43:39;;;;;;;21.23;18.07;;;0.00;99.90;;;;;;5022731;28;21020;-79
2024/01/15 04:46:07;;;;;;;22.10;18.57;;;-0.10;99.90;;;;;;5028993;28;20617;-80
2024/01/15 04:48:34;;;;;;;21.63;18.53;;;-0.10;99.90;;;;;;5027284;28;20537;-78
2024/01/15 04:51:01;;;;;;;27.23;19.57;;;-0.10;99.90;;;;;;5023348;28;21002;-78
2024/01/15 04:53:28;;;;;;;25.90;19.37;;;-0.10;99.90;;;;;;5031359;28;20500;-78
2024/01/15 04:55:55;;;;;;;22.73;18.73;;;-0.10;99.90;;;;;;5034782;28;20845;-78
2024/01/15 04:58:25;;;;;;;21.10;18.97;;;0.00;99.90;;;;;;5021618;28;20876;-78
2024/01/15 05:00:52;;;;;;;21.43;19.20;;;-0.10;99.90;;;;;;5024989;28;20460;-79
2024/01/15 05:03:19;;;;;;;24.33;19.57;;;0.00;99.90;;;;;;5021767;28;20539;-78
2024/01/15 05:05:46;;;;;;;27.33;20.03;;;-0.10;99.90;;;;;;5023979;28;20488;-79
2024/01/15 05:08:12;;;;;;;22.60;19.00;;;-0.10;99.90;;;;;;5026656;28;20450;-78
2024/01/15 05:10:39;;;;;;;25.27;20.33;;;-0.10;99.90;;;;;;5027692;28;20469;-79
2024/01/15 05:13:06;;;;;;;23.17;20.03;;;-0.10;99.90;;;;;;5022738;28;20437;-78
2024/01/15 05:15:34;;;;;;;23.77;19.97;;;-0.10;99.90;;;;;;5029515;28;20437;-78
2024/01/15 05:18:01;;;;;;;24.63;19.37;;;-0.10;99.90;;;;;;5016349;28;20453;-78
2024/01/15 05:20:28;;;;;;;23.33;19.27;;;-0.10;99.90;;;;;;5020832;28;20504;-79
2024/01/15 05:22:55;;;;;;;23.90;19.47;;;-0.10;99.90;;;;;;5037990;28;20478;-78
2024/01/15 05:25:22;;;;;;;22.13;19.50;;;-0.10;99.90;;;;;;5023566;28;20439;-79
2024/01/15 05:27:48;;;;;;;23.20;19.20;;;-0.10;99.90;;;;;;5020369;28;20463;-78
2024/01/15 05:30:16;;;;;;;24.30;19.73;;;-0.10;99.90;;;;;;5028931;28;20445;-78
2024/01/15 05:32:44;;;;;;;21.07;18.77;;;-0.10;99.90;;;;;;5029875;28;20463;-79
2024/01/15 05:35:11;;;;;;;21.87;19.27;;;-0.10;99.90;;;;;;5021960;28;20502;-78
2024/01/15 05:37:39;;;;;;;22.17;18.80;;;-0.10;99.90;;;;;;5022652;28;20479;-78
2024/01/15 05:40:07;;;;;;;22.17;19.27;;;-0.10;99.90;;;;;;5029148;28;20510;-79
2024/01/15 05:42:33;;;;;;;22.23;18.90;;;-0.10;99.90;;;;;;5023324;28;20498;-77
2024/01/15 05:45:02;;;;;;;20.53;18.33;;;-0.10;99.90;;;;;;5024494;28;20453;-77
2024/01/15 05:47:29;;;;;;;23.43;18.70;;;0.00;99.90;;;;;;5030174;28;20483;-78
2024/01/15 05:49:57;;;;;;;20.40;17.87;;;0.00;99.90;;;;;;5025512;28;20441;-78
2024/01/15 05:52:24;;;;;;;21.03;18.83;;;0.00;99.90;;;;;;5033874;28;20449;-78
2024/01/15 05:54:51;;;;;;;19.50;17.33;;;0.00;99.90;;;;;;5033750;28;20442;-78
2024/01/15 05:57:18;;;;;;;21.50;17.87;;;0.00;99.90;;;;;;5033663;28;20555;-79
2024/01/15 05:59:46;;;;;;;20.13;17.97;;;0.00;99.90;;;;;;5019473;28;20438;-78
2024/01/15 06:02:12;;;;;;;19.80;17.37;;;0.00;99.90;;;;;;5027217;28;21149;-78
2024/01/15 06:04:39;;;;;;;21.23;19.03;;;0.00;99.90;;;;;;5030429;28;20994;-79
2024/01/15 06:07:07;;;;;;;21.03;18.00;;;0.00;99.90;;;;;;5033501;28;20469;-78
2024/01/15 06:09:34;;;;;;;21.20;19.20;;;0.00;99.90;;;;;;5034774;28;20438;-78
2024/01/15 06:12:01;;;;;;;21.97;19.57;;;0.00;99.90;;;;;;5035815;28;20441;-78
2024/01/15 06:14:28;;;;;;;21.90;18.50;;;0.00;99.90;;;;;;5034143;28;20449;-79
2024/01/15 06:16:54;;;;;;;21.10;18.90;;;0.00;99.90;;;;;;5033267;28;20464;-78
2024/01/15 06:19:21;;;;;;;21.37;19.17;;;0.00;99.90;;;;;;5028463;28;20440;-78
2024/01/15 06:21:48;;;;;;;21.43;19.17;;;0.00;99.90;;;;;;5034419;28;20499;-79
2024/01/15 06:24:17;;;;;;;21.43;19.17;;;0.00;99.90;;;;;;5026473;28;20564;-79
2024/01/15 06:26:44;;;;;;;22.57;20.23;;;0.10;99.90;;;;;;5038018;28;20449;-77
2024/01/15 06:29:11;;;;;;;24.03;20.33;;;0.10;99.90;;;;;;5030920;28;20466;-80
2024/01/15 06:31:38;;;;;;;23.47;20.97;;;0.10;99.90;;;;;;5029589;28;20465;-78
2024/01/15 06:34:05;;;;;;;22.70;20.23;;;0.10;99.90;;;;;;5028340;28;20510;-78
2024/01/15 06:36:31;;;;;;;23.43;20.13;;;0.00;99.90;;;;;;5033913;28;20538;-79
2024/01/15 06:38:58;;;;;;;21.40;19.10;;;0.10;99.90;;;;;;5028717;28;20948;-79
2024/01/15 06:41:26;;;;;;;24.33;20.57;;;0.10;99.90;;;;;;5033926;28;20883;-79
2024/01/15 06:43:53;;;;;;;26.07;20.30;;;0.10;99.90;;;;;;5026315;28;20505;-78
2024/01/15 06:46:24;;;;;;;21.97;19.80;;;0.00;99.90;;;;;;5033194;28;20509;-78
2024/01/15 06:48:51;;;;;;;21.47;18.97;;;0.00;99.90;;;;;;5032074;28;20452;-77
2024/01/15 06:51:17;;;;;;;21.43;19.17;;;0.10;99.90;;;;;;5027635;28;20445;-78
2024/01/15 06:53:44;;;;;;;20.67;18.50;;;0.10;99.90;;;;;;5032534;28;20937;-78
2024/01/15 06:56:11;;;;;;;21.90;19.37;;;0.10;99.90;;;;;;5032630;28;20459;-79
2024/01/15 06:58:39;;;;;;;21.77;19.40;;;0.10;99.90;;;;;;5032434;28;20469;-78
2024/01/15 07:01:07;;;;;;;20.90;18.70;;;0.10;99.90;;;;;;5030952;28;20465;-77
2024/01/15 07:03:34;;;;;;;21.50;19.30;;;0.10;99.90;;;;;;5031897;28;20470;-78
2024/01/15 07:06:01;;;;;;;22.20;19.87;;;0.10;99.90;;;;;;5024390;28;20480;-79
2024/01/15 07:08:28;;;;;;;21.30;19.13;;;0.10;99.90;;;;;;5032495;28;20984;-78
2024/01/15 07:10:55;;;;;;;20.67;18.63;;;0.20;99.90;;;;;;5033349;28;20445;-79
2024/01/15 07:13:22;;;;;;;22.33;20.03;;;0.20;99.90;;;;;;5026681;28;20825;-79
2024/01/15 07:15:50;;;;;;;21.00;18.70;;;0.20;99.90;;;;;;5033417;28;20438;-78
2024/01/15 07:18:17;;;;;;;19.50;17.57;;;0.10;99.90;;;;;;5032121;28;20453;-79
2024/01/15 07:20:44;;;;;;;19.93;17.93;;;0.20;99.90;;;;;;5025664;28;20447;-79
2024/01/15 07:23:10;;;;;;;21.23;19.03;;;0.20;99.90;;;;;;5031587;28;20520;-78
2024/01/15 07:25:37;;;;;;;20.57;18.40;;;0.20;99.90;;;;;;5027109;28;20447;-79
2024/01/15 07:28:05;;;;;;;21.13;19.03;;;0.20;99.90;;;;;;5030365;28;20450;-78
2024/01/15 07:30:31;;;;;;;20.83;18.67;;;0.20;99.90;;;;;;5033248;28;20816;-79
2024/01/15 07:33:00;;;;;;;20.07;17.83;;;0.20;99.90;;;;;;5025528;28;20481;-77
2024/01/15 07:35:26;;;;;;;22.37;18.07;;;0.20;99.90;;;;;;5029075;28;20493;-79
2024/01/15 07:37:54;;;;;;;18.13;16.50;;;0.20;99.90;;;;;;5030710;28;20525;-78
2024/01/15 07:40:21;;;;;;;18.53;16.63;;;0.20;99.90;;;;;;5028623;28;20450;-78
2024/01/15 07:42:48;;;;;;;17.87;16.17;;;0.20;99.90;;;;;;5032826;28;20929;-78
2024/01/15 07:45:15;;;;;;;18.60;16.70;;;0.30;99.90;;;;;;5032513;28;20449;-78
2024/01/15 07:47:41;;;;;;;18.07;16.30;;;0.30;99.90;;;;;;5024483;28;20485;-78
2024/01/15 07:50:09;;;;;;;18.23;16.33;;;0.40;99.90;;;;;;5032850;28;20454;-78
2024/01/15 07:52:36;;;;;;;18.10;16.33;;;0.40;99.90;;;;;;5031548;28;21084;-78
2024/01/15 07:55:05;;;;;;;18.90;16.90;;;0.50;99.90;;;;;;5032369;28;20492;-78
2024/01/15 07:57:32;;;;;;;19.63;17.83;;;0.50;99.90;;;;;;5029440;28;20466;-78
2024/01/15 07:59:58;;;;;;;18.80;16.97;;;0.50;99.90;;;;;;5024938;28;20494;-78
2024/01/15 08:02:25;;;;;;;19.07;17.20;;;0.50;99.90;;;;;;5036664;28;20500;-78
2024/01/15 08:04:52;;;;;;;17.77;16.00;;;0.50;99.90;;;;;;5031570;28;20504;-78
2024/01/15 08:07:20;;;;;;;18.63;16.93;;;0.60;99.90;;;;;;5034313;28;20461;-78
2024/01/15 08:09:48;;;;;;;18.43;16.73;;;0.60;99.90;;;;;;5024060;28;20450;-79
2024/01/15 08:12:15;;;;;;;17.70;15.90;;;0.60;99.90;;;;;;5032469;28;20941;-78
2024/01/15 08:14:42;;;;;;;17.57;15.90;;;0.60;99.90;;;;;;5021080;28;20492;-78
2024/01/15 08:17:09;;;;;;;17.33;15.80;;;0.70;99.90;;;;;;5051353;28;20462;-78
2024/01/15 08:19:36;;;;;;;17.53;15.53;;;0.70;99.90;;;;;;5031108;28;20446;-78
2024/01/15 08:22:03;;;;;;;17.83;16.17;;;0.70;99.90;;;;;;5022254;28;20450;-77
2024/01/15 08:24:31;;;;;;;18.27;16.53;;;0.70;99.90;;;;;;5030697;28;20508;-78
2024/01/15 08:26:58;;;;;;;16.83;15.33;;;0.80;99.90;;;;;;5031914;28;21058;-77
2024/01/15 08:29:25;;;;;;;17.40;15.90;;;0.80;99.90;;;;;;5031684;28;20454;-80
2024/01/15 08:31:53;;;;;;;20.00;16.70;;;0.90;99.90;;;;;;5037347;28;20516;-81
2024/01/15 08:34:35;;;;;;;19.87;17.10;;;0.90;99.90;;;;;;5028332;28;20857;-81
2024/01/15 08:37:10;;;;;;;19.47;17.47;;;0.90;99.90;;;;;;5032910;28;20460;-81
2024/01/15 08:39:41;;;;;;;17.50;15.80;;;1.00;99.90;;;;;;5024930;28;20454;-80
2024/01/15 08:42:11;;;;;;;17.50;16.00;;;1.00;99.90;;;;;;5055094;28;20949;-78
2024/01/15 08:44:39;;;;;;;17.23;15.73;;;1.10;99.90;;;;;;5032964;28;20465;-78
2024/01/15 08:47:06;;;;;;;15.80;14.50;;;1.10;99.90;;;;;;5030157;28;20489;-77
2024/01/15 08:49:33;;;;;;;15.27;13.97;;;1.10;99.90;;;;;;5023318;28;20445;-77
2024/01/15 08:51:59;;;;;;;15.93;14.50;;;1.20;99.90;;;;;;5022961;28;20541;-77
2024/01/15 08:54:26;;;;;;;16.03;14.63;;;1.20;99.90;;;;;;5023587;28;20446;-77
2024/01/15 08:56:54;;;;;;;14.90;13.53;;;1.20;99.90;;;;;;5023374;28;20489;-77
2024/01/15 08:59:25;;;;;;;14.47;13.37;;;1.30;99.90;;;;;;5031947;28;20435;-78
2024/01/15 09:01:52;;;;;;;14.40;13.27;;;1.30;99.90;;;;;;5030123;28;20443;-77
2024/01/15 09:04:19;;;;;;;14.17;13.07;;;1.40;99.90;;;;;;5030425;28;20801;-78
2024/01/15 09:06:46;;;;;;;14.23;13.13;;;1.40;99.90;;;;;;5022061;28;20459;-78
2024/01/15 09:09:14;;;;;;;14.13;13.03;;;1.50;99.90;;;;;;5022158;28;20859;-78
2024/01/15 09:11:41;;;;;;;14.30;13.20;;;1.50;99.90;;;;;;5023479;28;20203;-78
2024/01/15 09:14:09;;;;;;;14.00;12.93;;;1.50;99.90;;;;;;5028827;28;20200;-78
2024/01/15 09:16:36;;;;;;;14.30;13.27;;;1.60;99.90;;;;;;5022100;28;20267;-78
2024/01/15 09:19:03;;;;;;;14.57;13.47;;;1.70;99.90;;;;;;5022022;28;20208;-78
2024/01/15 09:21:30;;;;;;;14.43;13.20;;;1.70;99.90;;;;;;5031276;28;20302;-78
2024/01/15 09:23:58;;;;;;;13.50;12.50;;;1.70;99.90;;;;;;5030097;28;20239;-77
2024/01/15 09:26:24;;;;;;;14.70;13.57;;;1.70;99.90;;;;;;5035179;28;20544;-78
2024/01/15 09:28:51;;;;;;;14.00;12.90;;;1.80;99.90;;;;;;5030286;28;20227;-77
2024/01/15 09:31:19;;;;;;;14.17;13.17;;;1.80;99.90;;;;;;5034246;28;20196;-78
2024/01/15 09:33:46;;;;;;;12.30;11.50;;;1.80;99.90;;;;;;5034005;28;20443;-77
2024/01/15 09:36:13;;;;;;;12.57;11.67;;;1.90;99.90;;;;;;5032199;28;20228;-78
2024/01/15 09:38:42;;;;;;;13.30;12.40;;;1.90;99.90;;;;;;5029666;28;20204;-77
2024/01/15 09:41:09;;;;;;;13.50;12.50;;;2.00;99.90;;;;;;5035313;28;20283;-78
2024/01/15 09:43:37;;;;;;;13.50;12.50;;;2.00;99.90;;;;;;5035629;28;20212;-78
2024/01/15 09:46:05;;;;;;;13.67;12.70;;;2.00;99.90;;;;;;5023716;28;20467;-78
2024/01/15 09:48:34;;;;;;;12.97;12.17;;;2.10;99.90;;;;;;5030120;28;20225;-80
2024/01/15 09:51:02;;;;;;;13.10;12.20;;;2.20;99.90;;;;;;5033318;28;20211;-80
2024/01/15 09:53:29;;;;;;;12.87;11.93;;;2.20;99.90;;;;;;5035340;28;20700;-80
2024/01/15 09:55:56;;;;;;;13.63;12.63;;;2.30;99.90;;;;;;5035823;28;20312;-79
2024/01/15 09:58:24;;;;;;;12.80;11.73;;;2.40;99.90;;;;;;5030276;28;20201;-80
2024/01/15 10:00:52;;;;;;;13.07;12.17;;;2.50;99.90;;;;;;5031281;28;20204;-80
2024/01/15 10:03:21;;;;;;;12.73;11.83;;;2.60;99.90;;;;;;5041280;28;20207;-80
2024/01/15 10:05:50;;;;;;;12.87;12.00;;;2.60;99.90;;;;;;5029236;28;20275;-79
2024/01/15 10:08:18;;;;;;;12.60;11.70;;;2.70;99.90;;;;;;5032216;28;20203;-80
2024/01/15 10:10:44;;;;;;;13.63;12.73;;;2.70;99.90;;;;;;5034404;28;20250;-78
2024/01/15 10:13:12;;;;;;;13.27;12.40;;;2.80;99.90;;;;;;5033037;28;20257;-78
2024/01/15 10:15:39;;;;;;;13.10;12.20;;;2.80;99.90;;;;;;5037370;28;20207;-81
2024/01/15 10:18:06;;;;;;;12.90;12.00;;;2.80;99.90;;;;;;5034713;28;20200;-81
2024/01/15 10:20:33;;;;;;;13.23;12.33;;;2.90;99.90;;;;;;5041015;28;20786;-78
2024/01/15 10:23:01;;;;;;;13.10;12.17;;;2.90;99.90;;;;;;5032443;28;20286;-79
2024/01/15 10:25:28;;;;;;;12.83;11.93;;;2.90;99.90;;;;;;5019556;28;20222;-79
2024/01/15 10:28:02;;;;;;;12.80;11.90;;;2.90;99.90;;;;;;5033130;28;20221;-78
2024/01/15 10:30:29;;;;;;;12.97;12.07;;;2.80;99.90;;;;;;5035539;28;20196;-78
2024/01/15 10:33:01;;;;;;;12.63;11.83;;;2.80;99.90;;;;;;5032969;28;20207;-79
2024/01/15 10:35:29;;;;;;;13.00;12.20;;;2.90;99.90;;;;;;5033597;28;20271;-78
2024/01/15 10:37:56;;;;;;;13.40;12.23;;;2.90;99.90;;;;;;5023760;28;20256;-78
2024/01/15 10:40:27;;;;;;;13.93;12.77;;;2.80;99.90;;;;;;5033153;28;20196;-83
2024/01/15 10:42:54;;;;;;;13.70;12.70;;;2.90;99.90;;;;;;5033922;28;20200;-80
2024/01/15 10:45:21;;;;;;;13.63;12.53;;;3.00;99.90;;;;;;5029531;28;20208;-80
2024/01/15 10:47:49;;;;;;;12.60;11.80;;;3.00;99.90;;;;;;5049713;28;20274;-81
2024/01/15 10:50:16;;;;;;;13.03;12.23;;;3.00;99.90;;;;;;5036369;28;20203;-81
2024/01/15 10:52:44;;;;;;;13.17;12.23;;;3.00;99.90;;;;;;5041438;28;20677;-80
2024/01/15 10:55:11;;;;;;;12.47;11.50;;;3.00;99.90;;;;;;5033296;28;20196;-81
2024/01/15 10:57:39;;;;;;;12.20;11.40;;;3.00;99.90;;;;;;5032358;28;20220;-81
2024/01/15 11:00:08;;;;;;;12.20;11.50;;;3.00;99.90;;;;;;5046879;28;20210;-81
2024/01/15 11:02:37;;;;;;;13.13;12.30;;;3.00;99.90;;;;;;5015798;28;20197;-80
2024/01/15 11:05:04;;;;;;;12.43;11.50;;;3.00;99.90;;;;;;5050472;28;20223;-80
2024/01/15 11:07:32;;;;;;;12.20;11.50;;;3.00;99.90;;;;;;5035365;28;20636;-81
2024/01/15 11:09:59;;;;;;;12.37;11.60;;;3.00;99.90;;;;;;5038256;28;20635;-78
2024/01/15 11:12:26;;;;;;;11.97;11.27;;;3.00;99.90;;;;;;5030782;28;20200;-82
2024/01/15 11:15:04;;;;;;;12.70;11.80;;;3.00;99.90;;;;;;5049687;28;20196;-79
2024/01/15 11:18:03;;;;;;;12.67;11.87;;;2.90;99.90;;;;;;5016144;28;20220;-78
2024/01/15 11:20:30;;;;;;;12.70;11.87;;;2.90;99.90;;;;;;5033719;28;20211;-78
2024/01/15 11:22:59;;;;;;;13.00;12.10;;;3.10;99.90;;;;;;5029077;28;20236;-82
2024/01/15 11:25:36;;;;;;;12.67;11.87;;;3.10;99.90;;;;;;5031308;28;20300;-82
2024/01/15 11:28:03;;;;;;;13.20;12.30;;;3.20;99.90;;;;;;5032383;28;20195;-83
2024/01/15 11:30:30;;;;;;;13.40;12.43;;;3.10;99.90;;;;;;5062658;28;20447;-81
2024/01/15 11:32:56;;;;;;;13.80;12.90;;;3.00;99.90;;;;;;5033377;28;20211;-81
2024/01/15 11:35:50;;;;;;;13.87;12.77;;;2.90;99.90;;;;;;5025006;28;20211;-79
2024/01/15 11:38:28;;;;;;;13.50;12.60;;;2.90;99.90;;;;;;5033400;28;20200;-79
2024/01/15 11:40:55;;;;;;;13.10;12.20;;;2.80;99.90;;;;;;5033245;28;20206;-79
2024/01/15 11:43:23;;;;;;;13.63;12.73;;;2.80;99.90;;;;;;5033332;28;20265;-78
2024/01/15 11:45:53;;;;;;;13.50;12.50;;;2.80;99.90;;;;;;5031729;28;20230;-78
2024/01/15 11:48:22;;;;;;;13.27;12.37;;;2.70;99.90;;;;;;5023935;28;20214;-78
2024/01/15 11:50:51;;;;;;;13.73;12.70;;;2.70;99.90;;;;;;5027369;28;20195;-79
2024/01/15 11:53:28;;;;;;;13.90;12.90;;;2.60;99.90;;;;;;5024755;28;20201;-79
2024/01/15 11:55:59;;;;;;;12.73;11.93;;;2.60;99.90;;;;;;5031023;28;20757;-78
2024/01/15 11:58:26;;;;;;;13.93;12.93;;;2.50;99.90;;;;;;5027759;28;20196;-78
2024/01/15 12:00:54;;;;;;;13.80;12.73;;;2.50;99.90;;;;;;5017859;28;20204;-78
2024/01/15 12:03:22;;;;;;;13.63;12.63;;;2.40;99.90;;;;;;5032699;28;20270;-79
2024/01/15 12:05:51;;;;;;;14.10;13.13;;;2.40;99.90;;;;;;5031260;28;20707;-78
2024/01/15 12:08:22;;;;;;;14.10;13.10;;;2.50;99.90;;;;;;5053408;28;20287;-79
2024/01/15 12:10:49;;;;;;;13.90;12.90;;;2.50;99.90;;;;;;5032689;28;20211;-78
2024/01/15 12:13:17;;;;;;;13.43;12.43;;;2.70;99.90;;;;;;5030778;28;20270;-79
2024/01/15 12:15:46;;;;;;;13.53;12.63;;;2.70;99.90;;;;;;5032085;28;20223;-78
2024/01/15 12:18:14;;;;;;;13.93;12.83;;;2.70;99.90;;;;;;5031224;28;20196;-79
2024/01/15 12:20:42;;;;;;;13.60;12.60;;;2.70;99.90;;;;;;5032739;28;20385;-79
2024/01/15 12:23:11;;;;;;;13.20;12.27;;;2.70;99.90;;;;;;5020678;28;20215;-78
2024/01/15 12:25:39;;;;;;;14.00;13.00;;;2.70;99.90;;;;;;5025291;28;20302;-81
2024/01/15 12:28:07;;;;;;;14.70;13.60;;;2.80;99.90;;;;;;5049372;28;20195;-83
2024/01/15 12:30:35;;;;;;;13.50;12.60;;;2.80;99.90;;;;;;5023950;28;20211;-79
2024/01/15 12:33:03;;;;;;;13.93;12.93;;;2.80;99.90;;;;;;5030551;28;20301;-79
2024/01/15 12:35:31;;;;;;;13.57;12.63;;;2.80;99.90;;;;;;5024789;28;20251;-79